Terminal Aerodrome Forecast
Issued by NWS Green Bay, WI

Home | Current Version | Previous Version | Graphics & Text | Print | Product List | Glossary On
Versions: 1 2 3 4 5 6 7 8 9 10 11 12 13 14 15 16 17 18 19 20 21 22 23 24 25 26 27 28 29 30
000
FTUS43 KGRB 240500
TAFGRB
TAF
KGRB 240520Z 2406/2506 22015G25KT P6SM BKN100 WS012/23040KT
     FM241100 24017G26KT 6SM BLSN SCT035 OVC060 WS012/24040KT
      TEMPO 2413/2417 2SM -SN BLSN BKN025
     FM241700 27015G25KT P6SM BKN040
     FM242300 29011G20KT P6SM BKN050
     FM250200 32009KT P6SM SCT050=

USA.gov is the U.S. government's official web portal to all federal, state and local government web resources and services.